Time;durP1;ratioP1;P1;durP2;ratioP2;P2;SDS_P1;SDS_P2;PMS_P1;PMS_P2;Temp;Humidity;BMP_temperature;BMP_pressure;BME280_temperature;BME280_humidity;BME280_pressure;Samples;Min_cycle;Max_cycle;Signal;HPM_P1;HPM_P2
2022/02/23 00:00:18;;;;;;;2.00;1.17;;;;;;;6.03;98.58;96003.09;5037732;28;20182;-81
2022/02/23 00:02:43;;;;;;;3.33;1.50;;;;;;;6.09;97.98;95992.34;5037682;28;20249;-81
2022/02/23 00:05:09;;;;;;;2.37;0.77;;;;;;;6.04;98.41;96002.16;5020659;28;20650;-82
2022/02/23 00:07:34;;;;;;;0.97;0.67;;;;;;;6.05;98.15;96008.97;5019806;28;20179;-81
2022/02/23 00:10:00;;;;;;;2.07;0.90;;;;;;;6.09;97.62;96011.19;5019257;28;20178;-81
2022/02/23 00:12:25;;;;;;;1.40;1.07;;;;;;;6.08;98.00;96012.13;5018356;28;20214;-81
2022/02/23 00:14:50;;;;;;;1.47;1.00;;;;;;;6.12;98.16;96016.16;5018845;28;20177;-81
2022/02/23 00:17:16;;;;;;;3.27;1.20;;;;;;;6.15;98.14;96015.09;5035850;28;20188;-82
2022/02/23 00:19:41;;;;;;;5.43;1.40;;;;;;;6.13;97.94;96016.97;5035858;28;20289;-81
2022/02/23 00:22:06;;;;;;;2.50;1.30;;;;;;;6.17;98.57;96018.41;5034143;28;20217;-82
2022/02/23 00:24:31;;;;;;;1.97;1.10;;;;;;;6.09;99.59;96026.66;5035389;28;20202;-81
2022/02/23 00:26:57;;;;;;;2.07;1.40;;;;;;;6.15;99.71;96028.81;5034053;28;20185;-81
2022/02/23 00:29:22;;;;;;;2.77;1.47;;;;;;;6.10;99.58;96043.00;5034107;28;20186;-81
2022/02/23 00:31:47;;;;;;;4.80;1.60;;;;;;;6.11;99.50;96054.94;5034228;28;20256;-81
2022/02/23 00:34:13;;;;;;;2.73;1.30;;;;;;;6.15;99.12;96040.91;5018359;28;20608;-81
2022/02/23 00:36:38;;;;;;;4.23;2.23;;;;;;;6.17;99.29;96044.19;5018930;28;20182;-81
2022/02/23 00:39:04;;;;;;;4.40;1.87;;;;;;;6.11;99.21;96042.88;5051050;28;20261;-81
2022/02/23 00:41:29;;;;;;;2.73;1.50;;;;;;;6.07;99.89;96045.78;5032896;28;20682;-81
2022/02/23 00:43:55;;;;;;;3.40;1.20;;;;;;;6.09;99.81;96038.75;5033326;28;20174;-81
2022/02/23 00:46:20;;;;;;;1.80;1.30;;;;;;;6.12;99.94;96051.44;5035493;28;20224;-81
2022/02/23 00:48:45;;;;;;;3.43;1.30;;;;;;;6.07;100.00;96053.50;5033162;28;20205;-81
2022/02/23 00:51:11;;;;;;;3.37;1.33;;;;;;;6.07;100.00;96048.34;5015988;28;20272;-81
2022/02/23 00:53:36;;;;;;;2.20;1.10;;;;;;;6.06;100.00;96063.00;5032516;28;20274;-81
2022/02/23 00:56:01;;;;;;;2.43;1.30;;;;;;;6.05;100.00;96051.03;5032857;28;20549;-81
2022/02/23 00:58:27;;;;;;;4.20;1.30;;;;;;;6.01;100.00;96053.91;5016031;28;20221;-81
2022/02/23 01:00:52;;;;;;;2.87;1.13;;;;;;;6.03;100.00;96054.66;5033088;28;20189;-81
2022/02/23 01:03:17;;;;;;;2.67;1.30;;;;;;;6.05;100.00;96057.94;5042645;28;20186;-81
2022/02/23 01:05:43;;;;;;;5.00;1.57;;;;;;;6.04;100.00;96064.03;5035287;28;20179;-81
2022/02/23 01:08:08;;;;;;;3.97;1.73;;;;;;;6.07;100.00;96061.25;5042015;28;20520;-82
2022/02/23 01:10:33;;;;;;;3.70;1.63;;;;;;;6.04;100.00;96070.03;5038544;28;20273;-82
2022/02/23 01:12:59;;;;;;;3.03;1.90;;;;;;;6.04;100.00;96064.88;5035825;28;20195;-81
2022/02/23 01:15:25;;;;;;;3.57;1.83;;;;;;;6.06;100.00;96072.50;5020333;28;20170;-82
2022/02/23 01:17:50;;;;;;;2.63;1.93;;;;;;;5.97;100.00;96064.47;5036855;28;20186;-81
2022/02/23 01:20:15;;;;;;;3.23;2.10;;;;;;;5.95;100.00;96074.06;5036917;28;20186;-81
2022/02/23 01:22:41;;;;;;;3.97;1.87;;;;;;;6.00;100.00;96076.31;5035637;28;20254;-81
2022/02/23 01:25:07;;;;;;;3.30;1.70;;;;;;;5.99;100.00;96084.16;5039753;28;20220;-81
2022/02/23 01:27:32;;;;;;;4.30;1.80;;;;;;;5.95;100.00;96081.78;5038730;28;20186;-81
2022/02/23 01:29:58;;;;;;;6.73;2.00;;;;;;;5.99;100.00;96091.88;5037451;28;20569;-81
2022/02/23 01:32:24;;;;;;;4.80;2.13;;;;;;;5.90;100.00;96089.00;5055051;28;20223;-81
2022/02/23 01:34:49;;;;;;;3.67;2.00;;;;;;;5.96;100.00;96091.19;5059500;28;20550;-81
2022/02/23 01:37:14;;;;;;;3.10;2.20;;;;;;;5.92;100.00;96097.47;5039631;28;20213;-82
2022/02/23 01:39:40;;;;;;;5.07;1.87;;;;;;;5.89;100.00;96092.50;5058237;28;20190;-82
2022/02/23 01:42:06;;;;;;;5.03;1.90;;;;;;;5.90;100.00;96096.75;5055616;28;20212;-81
2022/02/23 01:44:31;;;;;;;5.23;1.90;;;;;;;5.84;100.00;96104.88;5038600;28;20588;-81
2022/02/23 01:46:56;;;;;;;3.97;2.10;;;;;;;5.90;100.00;96107.06;5038293;28;20173;-81
2022/02/23 01:49:23;;;;;;;3.93;2.00;;;;;;;5.98;100.00;96116.84;5053267;28;20268;-81
2022/02/23 01:51:49;;;;;;;4.30;2.00;;;;;;;5.91;100.00;96115.59;5053265;28;20240;-81
2022/02/23 01:54:14;;;;;;;3.97;1.67;;;;;;;5.88;100.00;96126.09;5038435;28;20331;-81
2022/02/23 01:56:40;;;;;;;5.13;1.83;;;;;;;5.91;100.00;96151.69;5038318;28;20216;-82
2022/02/23 01:59:05;;;;;;;2.30;1.40;;;;;;;5.73;100.00;96174.34;5038117;28;20239;-81
2022/02/23 02:01:30;;;;;;;2.77;1.17;;;;;;;5.08;100.00;96200.09;5055469;28;20322;-81
2022/02/23 02:03:56;;;;;;;2.63;1.33;;;;;;;4.64;100.00;96190.03;5039311;28;20193;-81
2022/02/23 02:06:21;;;;;;;3.83;1.60;;;;;;;4.21;100.00;96208.09;5054163;28;20683;-80
2022/02/23 02:08:46;;;;;;;4.13;1.00;;;;;;;4.11;100.00;96218.13;5054283;28;20186;-81
2022/02/23 02:11:11;;;;;;;1.37;1.00;;;;;;;4.16;100.00;96228.13;5036801;28;20216;-81
2022/02/23 02:13:37;;;;;;;3.60;1.17;;;;;;;4.10;100.00;96234.47;5054610;28;20584;-82
2022/02/23 02:16:02;;;;;;;4.50;2.17;;;;;;;3.64;100.00;96226.88;5038334;28;20204;-82
2022/02/23 02:18:27;;;;;;;3.23;1.00;;;;;;;3.57;100.00;96250.44;5037153;28;20180;-81
2022/02/23 02:20:53;;;;;;;8.40;2.23;;;;;;;3.58;100.00;96252.91;5037639;28;20552;-81
2022/02/23 02:23:18;;;;;;;6.27;1.50;;;;;;;3.54;100.00;96246.31;5020357;28;20658;-81
2022/02/23 02:25:43;;;;;;;5.47;1.27;;;;;;;3.46;100.00;96256.19;5039119;28;20180;-81
2022/02/23 02:28:09;;;;;;;5.50;1.27;;;;;;;3.50;100.00;96254.25;5038610;28;20207;-81
2022/02/23 02:30:34;;;;;;;5.63;1.30;;;;;;;3.51;100.00;96264.44;5038377;28;20195;-81
2022/02/23 02:32:59;;;;;;;6.13;1.63;;;;;;;3.63;100.00;96261.19;5037848;28;20718;-81
2022/02/23 02:35:25;;;;;;;3.00;1.40;;;;;;;3.67;100.00;96267.78;5038794;28;20166;-81
2022/02/23 02:37:50;;;;;;;5.23;1.10;;;;;;;3.60;100.00;96278.50;5037682;28;20191;-81
2022/02/23 02:40:15;;;;;;;8.37;1.40;;;;;;;3.66;100.00;96270.47;5049105;28;20239;-81
2022/02/23 02:42:41;;;;;;;8.20;1.43;;;;;;;3.65;100.00;96274.78;5032244;28;20199;-82
2022/02/23 02:45:07;;;;;;;7.63;1.50;;;;;;;3.50;98.03;96285.06;5040607;28;20205;-81
2022/02/23 02:47:32;;;;;;;5.47;1.37;;;;;;;3.53;100.00;96288.28;5040111;28;20202;-82
2022/02/23 02:49:57;;;;;;;8.47;1.67;;;;;;;3.64;100.00;96287.72;5040624;28;20530;-82
2022/02/23 02:52:23;;;;;;;7.07;1.57;;;;;;;3.55;99.34;96294.19;5039339;28;20214;-82
2022/02/23 02:54:48;;;;;;;7.50;1.60;;;;;;;3.62;99.44;96292.06;5039258;28;20547;-82
2022/02/23 02:57:13;;;;;;;12.70;1.70;;;;;;;3.65;100.00;96294.50;5040694;28;20185;-81
2022/02/23 02:59:38;;;;;;;4.87;1.20;;;;;;;3.62;99.77;96285.22;5040161;28;20178;-82
2022/02/23 03:02:04;;;;;;;6.37;1.30;;;;;;;3.66;99.85;96289.25;5039109;28;20257;-82
2022/02/23 03:04:29;;;;;;;5.93;1.60;;;;;;;3.69;100.00;96289.06;5038649;28;20178;-81
2022/02/23 03:06:55;;;;;;;6.03;1.17;;;;;;;3.73;100.00;96288.94;5036914;28;20202;-81
2022/02/23 03:09:20;;;;;;;8.60;1.30;;;;;;;3.69;100.00;96286.50;5038664;28;20174;-82
2022/02/23 03:11:45;;;;;;;8.50;2.60;;;;;;;3.68;100.00;96290.00;5037998;28;20609;-82
2022/02/23 03:14:10;;;;;;;5.80;1.60;;;;;;;3.67;100.00;96287.53;5038366;28;20679;-82
2022/02/23 03:16:36;;;;;;;7.37;1.10;;;;;;;3.65;100.00;96279.09;5038277;28;20664;-82
2022/02/23 03:19:01;;;;;;;6.73;1.17;;;;;;;3.58;100.00;96273.47;5020870;28;20661;-82
2022/02/23 03:21:27;;;;;;;10.50;2.57;;;;;;;3.56;100.00;96280.44;5037000;28;20207;-83
2022/02/23 03:23:52;;;;;;;3.13;1.00;;;;;;;3.52;100.00;96291.78;5036143;28;20209;-82
2022/02/23 03:26:18;;;;;;;2.30;0.90;;;;;;;3.45;100.00;96287.91;5037505;28;20220;-82
2022/02/23 03:28:43;;;;;;;5.00;1.20;;;;;;;3.42;100.00;96288.06;5037036;28;20681;-82
2022/02/23 03:31:09;;;;;;;6.77;1.20;;;;;;;3.35;100.00;96286.75;5036914;28;20272;-82
2022/02/23 03:33:42;;;;;;;7.77;1.33;;;;;;;3.29;100.00;96287.94;5020399;28;20174;-83
2022/02/23 03:36:08;;;;;;;4.23;1.37;;;;;;;3.24;100.00;96299.38;5037749;28;20179;-82
2022/02/23 03:38:33;;;;;;;4.77;1.30;;;;;;;3.20;100.00;96308.16;5020386;28;20174;-82
2022/02/23 03:40:58;;;;;;;5.57;1.10;;;;;;;3.15;100.00;96307.56;5035466;28;20179;-82
2022/02/23 03:43:24;;;;;;;4.73;1.17;;;;;;;3.12;100.00;96314.53;5036409;28;20234;-83
2022/02/23 03:45:49;;;;;;;3.67;1.30;;;;;;;3.10;100.00;96313.78;5037365;28;20295;-82
2022/02/23 03:48:14;;;;;;;3.37;1.17;;;;;;;3.08;100.00;96325.84;5041087;28;20178;-82
2022/02/23 03:50:39;;;;;;;6.63;1.43;;;;;;;3.09;100.00;96322.41;5041894;28;20206;-82
2022/02/23 03:53:05;;;;;;;4.03;0.90;;;;;;;3.07;100.00;96324.22;5042423;28;20205;-82
2022/02/23 03:55:31;;;;;;;3.90;1.23;;;;;;;3.12;100.00;96332.50;5043928;28;20178;-82
2022/02/23 03:57:57;;;;;;;4.87;1.70;;;;;;;3.11;100.00;96330.84;5044617;28;20183;-81
2022/02/23 04:00:22;;;;;;;3.30;1.20;;;;;;;3.09;100.00;96335.25;5044379;28;20174;-82
2022/02/23 04:02:48;;;;;;;7.70;1.40;;;;;;;3.11;100.00;96335.16;5042942;28;20199;-82
2022/02/23 04:05:13;;;;;;;6.43;1.23;;;;;;;3.05;100.00;96346.56;5043065;28;20175;-82
2022/02/23 04:07:39;;;;;;;2.43;1.17;;;;;;;3.08;100.00;96351.53;5042307;28;20229;-82
2022/02/23 04:10:05;;;;;;;4.40;1.30;;;;;;;3.10;100.00;96354.84;5042731;28;20190;-83
2022/02/23 04:12:31;;;;;;;4.83;1.37;;;;;;;3.07;100.00;96360.13;5025452;28;20244;-83
2022/02/23 04:14:56;;;;;;;4.80;1.20;;;;;;;3.08;100.00;96369.47;5042140;28;20574;-82
2022/02/23 04:17:21;;;;;;;3.00;1.10;;;;;;;3.09;100.00;96363.47;5042608;28;20189;-82
2022/02/23 04:19:47;;;;;;;3.47;1.00;;;;;;;3.08;100.00;96373.78;5041835;28;20181;-82
2022/02/23 04:22:18;;;;;;;4.10;1.30;;;;;;;3.10;100.00;96388.22;5040339;28;20186;-82
2022/02/23 04:24:43;;;;;;;3.87;1.30;;;;;;;3.15;100.00;96393.09;5039732;28;20186;-83
2022/02/23 04:27:08;;;;;;;4.67;1.40;;;;;;;3.16;100.00;96399.06;5039490;28;20187;-83
2022/02/23 04:29:34;;;;;;;3.83;1.27;;;;;;;3.16;100.00;96407.56;5039288;28;20190;-83
2022/02/23 04:31:59;;;;;;;2.93;1.10;;;;;;;3.16;100.00;96414.44;5046802;28;20187;-83
2022/02/23 04:34:25;;;;;;;2.63;1.00;;;;;;;3.15;100.00;96412.78;5049540;28;20209;-83
2022/02/23 04:36:51;;;;;;;4.73;1.30;;;;;;;3.11;100.00;96412.16;5040983;28;20182;-83
2022/02/23 04:39:16;;;;;;;4.53;1.10;;;;;;;3.10;100.00;96415.63;5040574;28;20281;-83
2022/02/23 04:41:42;;;;;;;5.37;1.27;;;;;;;3.07;100.00;96411.47;5039662;28;20207;-82
2022/02/23 04:44:07;;;;;;;4.33;0.80;;;;;;;3.05;100.00;96408.16;5039156;28;20187;-83
2022/02/23 04:46:33;;;;;;;3.97;1.53;;;;;;;3.03;100.00;96411.72;5039327;28;20182;-83
2022/02/23 04:48:58;;;;;;;6.80;1.37;;;;;;;3.00;100.00;96405.00;5039224;28;20186;-83
2022/02/23 04:51:25;;;;;;;4.53;1.30;;;;;;;2.98;100.00;96416.25;5039180;28;20563;-82
2022/02/23 04:53:52;;;;;;;5.73;1.60;;;;;;;2.88;100.00;96415.91;5039050;28;20171;-82
2022/02/23 04:56:17;;;;;;;3.13;1.43;;;;;;;2.81;100.00;96419.69;5039402;28;20236;-83
2022/02/23 04:58:42;;;;;;;4.80;1.30;;;;;;;2.75;100.00;96420.84;5038986;28;20261;-82
2022/02/23 05:01:08;;;;;;;2.20;1.33;;;;;;;2.71;100.00;96427.03;5042445;28;20227;-83
2022/02/23 05:03:33;;;;;;;6.10;1.80;;;;;;;2.68;100.00;96426.38;5060415;28;20198;-82
2022/02/23 05:05:59;;;;;;;3.73;1.10;;;;;;;2.63;100.00;96431.72;5047127;28;20193;-82
2022/02/23 05:08:27;;;;;;;4.50;1.33;;;;;;;2.55;100.00;96426.97;5058481;28;20542;-82
2022/02/23 05:10:53;;;;;;;6.47;2.00;;;;;;;2.45;100.00;96425.78;5043624;28;20210;-82
2022/02/23 05:13:18;;;;;;;6.57;1.40;;;;;;;2.38;100.00;96429.53;5059860;28;20185;-82
2022/02/23 05:15:43;;;;;;;4.57;1.30;;;;;;;2.34;100.00;96430.63;5059543;28;20190;-82
2022/02/23 05:18:09;;;;;;;4.00;1.47;;;;;;;2.27;100.00;96430.09;5041926;28;20220;-82
2022/02/23 05:20:35;;;;;;;6.07;1.60;;;;;;;2.31;100.00;96430.78;5041615;28;20265;-82
2022/02/23 05:23:01;;;;;;;5.40;1.20;;;;;;;2.25;100.00;96434.47;5040355;28;20230;-82
2022/02/23 05:25:27;;;;;;;6.47;1.20;;;;;;;2.24;100.00;96439.66;5043525;28;20186;-82
2022/02/23 05:27:52;;;;;;;3.83;0.93;;;;;;;2.18;100.00;96435.66;5042271;28;20220;-82
2022/02/23 05:30:18;;;;;;;2.90;1.60;;;;;;;2.16;100.00;96439.22;5060015;28;20181;-82
2022/02/23 05:32:43;;;;;;;3.60;1.20;;;;;;;2.14;100.00;96438.47;5058976;28;20213;-82
2022/02/23 05:35:09;;;;;;;5.00;1.40;;;;;;;2.13;100.00;96442.75;5042767;28;20181;-82
2022/02/23 05:37:35;;;;;;;4.97;1.40;;;;;;;2.14;100.00;96441.03;5059932;28;20186;-82
2022/02/23 05:40:01;;;;;;;6.87;1.73;;;;;;;2.10;100.00;96452.31;5042339;28;20178;-82
2022/02/23 05:42:27;;;;;;;4.00;1.07;;;;;;;2.13;100.00;96457.31;5040159;28;20194;-82
2022/02/23 05:44:52;;;;;;;5.87;1.30;;;;;;;2.08;100.00;96459.25;5043124;28;20262;-82
2022/02/23 05:47:17;;;;;;;3.00;1.53;;;;;;;2.02;100.00;96462.09;5042864;28;20182;-82
2022/02/23 05:49:42;;;;;;;3.90;1.60;;;;;;;1.94;100.00;96459.88;5043940;28;20191;-82
2022/02/23 05:52:08;;;;;;;5.00;1.40;;;;;;;1.92;100.00;96470.22;5042754;28;20639;-82
2022/02/23 05:54:33;;;;;;;5.80;1.30;;;;;;;1.91;100.00;96475.41;5040789;28;20239;-82
2022/02/23 05:56:59;;;;;;;4.43;1.40;;;;;;;1.87;100.00;96479.03;5042377;28;20276;-82
2022/02/23 05:59:25;;;;;;;4.57;1.30;;;;;;;1.85;100.00;96491.06;5041441;28;20182;-82
2022/02/23 06:01:51;;;;;;;4.33;1.50;;;;;;;1.82;100.00;96491.22;5040053;28;20197;-82
2022/02/23 06:04:16;;;;;;;3.17;2.10;;;;;;;1.87;100.00;96499.53;5058188;28;20178;-82
2022/02/23 06:06:41;;;;;;;6.10;1.77;;;;;;;1.86;100.00;96501.25;5040204;28;20192;-82
2022/02/23 06:09:06;;;;;;;5.80;2.10;;;;;;;1.85;100.00;96498.75;5061812;28;20758;-82
2022/02/23 06:11:32;;;;;;;5.77;1.97;;;;;;;1.87;100.00;96504.66;5070597;28;20232;-83
2022/02/23 06:13:57;;;;;;;6.13;2.23;;;;;;;1.89;100.00;96498.53;5059820;28;20242;-83
2022/02/23 06:16:24;;;;;;;6.33;2.93;;;;;;;1.87;100.00;96502.91;5042507;28;20185;-82
2022/02/23 06:18:51;;;;;;;5.07;2.60;;;;;;;1.89;100.00;96506.22;5059104;28;20166;-81
2022/02/23 06:21:16;;;;;;;7.57;2.53;;;;;;;1.90;100.00;96509.63;5041003;28;20196;-83
2022/02/23 06:23:43;;;;;;;5.13;2.10;;;;;;;1.89;100.00;96516.47;5056427;28;21045;-80
2022/02/23 06:26:08;;;;;;;4.93;2.10;;;;;;;1.88;100.00;96519.94;5041301;28;20646;-81
2022/02/23 06:28:34;;;;;;;6.70;2.17;;;;;;;1.89;100.00;96526.72;5041521;28;20175;-81
2022/02/23 06:31:00;;;;;;;6.10;2.17;;;;;;;1.83;100.00;96519.31;5041738;28;20200;-81
2022/02/23 06:33:25;;;;;;;6.27;2.23;;;;;;;1.82;100.00;96522.78;5056742;28;20406;-81
2022/02/23 06:35:54;;;;;;;3.97;2.30;;;;;;;1.84;100.00;96528.66;5057371;28;20185;-82
2022/02/23 06:38:20;;;;;;;9.83;2.43;;;;;;;1.94;100.00;96534.19;5040855;28;20173;-81
2022/02/23 06:40:46;;;;;;;5.67;2.53;;;;;;;1.91;100.00;96529.22;5041168;28;20234;-82
2022/02/23 06:43:19;;;;;;;5.40;2.40;;;;;;;1.91;100.00;96532.59;5056373;28;20197;-81
2022/02/23 06:45:49;;;;;;;4.17;1.70;;;;;;;1.93;100.00;96533.34;5040819;28;20204;-82
2022/02/23 06:48:14;;;;;;;7.57;2.43;;;;;;;1.95;100.00;96544.38;5056640;28;20200;-82
2022/02/23 06:50:40;;;;;;;6.97;2.30;;;;;;;2.02;100.00;96541.50;5039976;28;20190;-82
2022/02/23 06:53:06;;;;;;;5.17;2.20;;;;;;;2.06;100.00;96543.03;5038949;28;20324;-82
2022/02/23 06:55:32;;;;;;;4.80;2.17;;;;;;;2.07;100.00;96539.59;5057205;28;20201;-81
2022/02/23 06:57:57;;;;;;;6.60;2.30;;;;;;;2.12;100.00;96542.75;5039469;28;20261;-82
2022/02/23 07:00:22;;;;;;;7.63;2.33;;;;;;;2.13;100.00;96550.38;5043269;28;20531;-82
2022/02/23 07:02:49;;;;;;;10.07;3.63;;;;;;;2.18;100.00;96558.66;5042819;28;20743;-81
2022/02/23 07:05:15;;;;;;;12.90;4.40;;;;;;;2.21;100.00;96568.78;5060901;28;20174;-81
2022/02/23 07:07:40;;;;;;;19.37;7.67;;;;;;;2.35;100.00;96560.44;5043552;28;20178;-82
2022/02/23 07:10:11;;;;;;;15.80;6.53;;;;;;;2.50;100.00;96574.28;5059832;28;20178;-82
2022/02/23 07:12:37;;;;;;;12.97;4.90;;;;;;;2.62;100.00;96572.84;5058261;28;20522;-82
2022/02/23 07:15:03;;;;;;;6.90;2.40;;;;;;;2.60;100.00;96566.97;5043156;28;20174;-81
2022/02/23 07:17:28;;;;;;;4.80;1.90;;;;;;;2.71;100.00;96577.53;5043478;28;20272;-82
2022/02/23 07:19:53;;;;;;;4.17;1.67;;;;;;;2.91;100.00;96579.94;5043205;28;20189;-82
2022/02/23 07:22:18;;;;;;;3.20;1.60;;;;;;;3.01;100.00;96575.19;5041942;28;20247;-81
2022/02/23 07:24:44;;;;;;;9.70;2.70;;;;;;;3.16;100.00;96588.97;5042274;28;20240;-81
2022/02/23 07:27:11;;;;;;;6.67;2.60;;;;;;;3.34;100.00;96588.06;5042326;28;20530;-82
2022/02/23 07:29:37;;;;;;;8.07;3.10;;;;;;;3.46;100.00;96582.31;5058457;28;20204;-82
2022/02/23 07:32:02;;;;;;;7.53;3.13;;;;;;;3.59;100.00;96591.03;5041663;28;20228;-82
2022/02/23 07:34:27;;;;;;;5.27;3.10;;;;;;;3.73;100.00;96589.50;5041875;28;20180;-82
2022/02/23 07:36:53;;;;;;;9.30;3.40;;;;;;;3.86;100.00;96591.31;5036172;28;20228;-82
2022/02/23 07:39:18;;;;;;;10.10;3.07;;;;;;;3.98;100.00;96600.13;5038190;28;20202;-82
2022/02/23 07:41:43;;;;;;;4.47;1.77;;;;;;;4.10;100.00;96594.31;5038089;28;20190;-81
2022/02/23 07:44:09;;;;;;;4.20;2.00;;;;;;;4.25;100.00;96597.81;5039462;28;20182;-82
2022/02/23 07:46:34;;;;;;;6.43;2.50;;;;;;;4.37;100.00;96593.75;5053338;28;20601;-82
2022/02/23 07:49:00;;;;;;;6.00;2.70;;;;;;;4.47;100.00;96600.03;5056704;28;20194;-82
2022/02/23 07:51:27;;;;;;;3.07;2.20;;;;;;;4.56;100.00;96591.81;5038820;28;20226;-82
2022/02/23 07:53:54;;;;;;;3.00;2.00;;;;;;;4.65;100.00;96606.72;5038385;28;20180;-82
2022/02/23 07:56:21;;;;;;;7.67;1.90;;;;;;;4.76;100.00;96599.22;5055075;28;20794;-82
2022/02/23 07:58:46;;;;;;;3.60;1.67;;;;;;;4.83;100.00;96610.00;5038302;28;20192;-82
2022/02/23 08:01:28;;;;;;;3.87;1.93;;;;;;;4.89;100.00;96608.84;5054042;28;20186;-82
2022/02/23 08:03:54;;;;;;;3.93;2.00;;;;;;;5.07;100.00;96612.94;5053930;28;20447;-82
2022/02/23 08:06:19;;;;;;;4.10;2.10;;;;;;;5.17;100.00;96615.81;5036611;28;20498;-83
2022/02/23 08:08:44;;;;;;;9.53;2.27;;;;;;;5.12;99.29;96610.91;5032533;28;20182;-82
2022/02/23 08:11:10;;;;;;;5.33;2.60;;;;;;;5.28;99.09;96614.28;5034652;28;20214;-82
2022/02/23 08:13:35;;;;;;;6.47;3.57;;;;;;;5.35;99.49;96614.75;5034158;28;20175;-81
2022/02/23 08:21:29;;;;;;;9.70;6.37;;;;;;;5.28;99.35;96611.69;5034356;28;20310;-82
2022/02/23 08:23:54;;;;;;;6.93;4.80;;;;;;;5.39;98.74;96617.06;5018608;28;20206;-82
2022/02/23 08:26:20;;;;;;;5.30;3.50;;;;;;;5.31;99.22;96616.69;5033969;28;20642;-81
2022/02/23 08:28:45;;;;;;;4.93;2.27;;;;;;;5.16;99.03;96620.13;5033424;28;20301;-81
2022/02/23 08:31:10;;;;;;;4.97;2.30;;;;;;;5.02;98.67;96614.94;5016368;28;20694;-78
2022/02/23 08:33:36;;;;;;;3.17;2.30;;;;;;;5.09;98.71;96613.69;5018386;28;20193;-78
2022/02/23 08:36:01;;;;;;;3.63;1.87;;;;;;;5.20;98.84;96613.06;5035938;28;20180;-78
2022/02/23 08:38:27;;;;;;;4.13;2.30;;;;;;;5.08;98.25;96612.03;5052204;28;20558;-79
2022/02/23 08:40:52;;;;;;;4.13;1.97;;;;;;;5.10;98.92;96608.44;5017021;28;20213;-81
2022/02/23 08:43:17;;;;;;;5.70;1.83;;;;;;;5.14;98.58;96611.69;5016952;28;20673;-81
2022/02/23 08:45:43;;;;;;;3.37;1.63;;;;;;;5.19;98.42;96613.97;5017203;28;20190;-82
2022/02/23 08:48:09;;;;;;;4.03;1.87;;;;;;;5.16;98.25;96612.41;5035727;28;20266;-83
2022/02/23 08:50:34;;;;;;;4.70;2.03;;;;;;;5.10;98.38;96616.16;5034010;28;20198;-82
2022/02/23 08:53:00;;;;;;;3.97;1.87;;;;;;;5.05;98.12;96612.22;5034839;28;20198;-80
2022/02/23 08:55:25;;;;;;;4.03;1.87;;;;;;;5.06;98.75;96622.41;5034854;28;20201;-81
2022/02/23 08:57:51;;;;;;;5.57;2.10;;;;;;;5.19;98.59;96621.69;5034368;28;20229;-82
2022/02/23 09:00:16;;;;;;;3.40;2.03;;;;;;;5.24;98.61;96614.56;5034453;28;20178;-83
2022/02/23 09:02:42;;;;;;;6.43;2.10;;;;;;;5.25;98.34;96614.47;5033376;28;20194;-78
2022/02/23 09:05:07;;;;;;;5.70;1.97;;;;;;;5.37;97.85;96616.31;5017000;28;20853;-81
2022/02/23 09:07:32;;;;;;;7.73;2.07;;;;;;;5.35;97.43;96618.16;5018053;28;20221;-81
2022/02/23 09:09:58;;;;;;;8.20;2.00;;;;;;;5.49;97.25;96613.94;5036237;28;20199;-81
2022/02/23 09:12:23;;;;;;;5.23;1.93;;;;;;;5.49;97.02;96617.34;5033245;28;20236;-80
2022/02/23 09:14:52;;;;;;;3.63;1.73;;;;;;;5.51;96.89;96606.97;5018063;28;20270;-81
2022/02/23 09:17:17;;;;;;;3.60;1.97;;;;;;;5.65;97.46;96607.81;5034285;28;20191;-80
2022/02/23 09:19:43;;;;;;;3.67;1.90;;;;;;;5.73;97.12;96607.31;5018297;28;20170;-81
2022/02/23 09:22:08;;;;;;;10.30;2.27;;;;;;;5.80;96.67;96603.47;5033389;28;20205;-81
2022/02/23 09:24:33;;;;;;;5.57;2.00;;;;;;;5.92;95.54;96600.19;5017562;28;20187;-80
2022/02/23 09:27:01;;;;;;;3.87;1.50;;;;;;;6.03;94.09;96602.09;5017790;28;20186;-80
2022/02/23 09:29:27;;;;;;;5.27;1.90;;;;;;;6.01;94.75;96600.53;5017472;28;20201;-81
2022/02/23 09:31:52;;;;;;;5.80;1.93;;;;;;;6.05;95.10;96608.00;5016512;28;20242;-81
2022/02/23 09:34:20;;;;;;;6.37;1.60;;;;;;;6.11;95.34;96607.63;5018052;28;20673;-81
2022/02/23 09:36:45;;;;;;;4.80;1.77;;;;;;;6.21;93.18;96607.88;5018041;28;20189;-81
2022/02/23 09:39:10;;;;;;;4.10;1.80;;;;;;;6.31;94.17;96603.81;5033722;28;20186;-81
2022/02/23 09:41:38;;;;;;;4.03;1.83;;;;;;;6.43;93.44;96604.78;5017550;28;20202;-81
2022/02/23 09:44:04;;;;;;;4.10;1.90;;;;;;;6.58;93.10;96613.31;5018709;28;20261;-81
2022/02/23 09:46:30;;;;;;;6.07;2.07;;;;;;;6.72;91.10;96603.78;5035012;28;20202;-81
2022/02/23 09:48:56;;;;;;;3.67;1.50;;;;;;;6.85;90.50;96608.97;5034768;28;20198;-81
2022/02/23 09:51:22;;;;;;;2.83;1.80;;;;;;;7.05;89.67;96615.41;5033793;28;20301;-82
2022/02/23 09:53:48;;;;;;;2.87;1.50;;;;;;;7.15;86.82;96613.88;5034456;28;20657;-82
2022/02/23 09:56:14;;;;;;;2.97;1.60;;;;;;;7.27;82.09;96615.69;5017789;28;20525;-81
2022/02/23 09:58:40;;;;;;;3.63;1.40;;;;;;;7.24;81.95;96617.63;5019173;28;20277;-81
2022/02/23 10:01:07;;;;;;;7.97;2.40;;;;;;;7.34;84.38;96622.09;5016480;28;20440;-81
2022/02/23 10:03:36;;;;;;;2.70;1.60;;;;;;;7.54;84.79;96614.78;5033663;28;20224;-80
2022/02/23 10:06:02;;;;;;;2.93;1.57;;;;;;;7.69;84.76;96606.00;5017838;28;20174;-81
2022/02/23 10:08:33;;;;;;;5.07;1.50;;;;;;;7.71;78.79;96616.22;5016809;28;20188;-81
2022/02/23 10:10:59;;;;;;;5.80;1.43;;;;;;;7.68;77.98;96612.06;5015919;28;20202;-81
2022/02/23 10:13:25;;;;;;;2.73;1.17;;;;;;;7.71;79.26;96616.22;5017134;28;20186;-81
2022/02/23 10:15:51;;;;;;;3.27;1.63;;;;;;;7.94;78.70;96613.69;5033577;28;20189;-81
2022/02/23 10:18:20;;;;;;;6.27;1.60;;;;;;;7.99;77.66;96610.81;5033831;28;20209;-80
2022/02/23 10:20:47;;;;;;;4.33;1.43;;;;;;;8.23;77.46;96610.88;5016634;28;20189;-80
2022/02/23 10:23:18;;;;;;;6.87;1.30;;;;;;;8.34;74.03;96607.53;5016438;28;20678;-81
2022/02/23 10:26:05;;;;;;;3.57;1.17;;;;;;;8.38;73.30;96604.63;5032521;28;20178;-81
2022/02/23 10:28:35;;;;;;;3.87;1.43;;;;;;;8.23;69.89;96610.88;5036150;28;20179;-81
2022/02/23 10:31:13;;;;;;;6.60;1.60;;;;;;;8.20;71.70;96600.72;5034448;28;20264;-82
2022/02/23 10:33:42;;;;;;;2.37;1.20;;;;;;;8.44;73.06;96603.38;5029944;28;20607;-82
2022/02/23 10:36:11;;;;;;;4.03;1.60;;;;;;;8.36;74.33;96608.28;5058086;28;20178;-80
2022/02/23 10:38:39;;;;;;;3.67;1.40;;;;;;;8.11;69.78;96611.72;5056861;28;20464;-81
2022/02/23 10:41:07;;;;;;;3.97;1.40;;;;;;;8.43;70.80;96609.50;5040299;28;20208;-82
2022/02/23 10:43:34;;;;;;;5.43;1.80;;;;;;;8.31;72.59;96607.75;5040515;28;20185;-82
2022/02/23 10:46:07;;;;;;;2.87;1.43;;;;;;;8.44;70.77;96599.03;5072291;28;20201;-82
2022/02/23 10:48:32;;;;;;;3.70;1.30;;;;;;;8.44;71.25;96601.63;5070544;28;20174;-82
2022/02/23 10:50:58;;;;;;;4.77;1.30;;;;;;;8.44;70.82;96599.03;5070754;28;20273;-82
2022/02/23 10:53:28;;;;;;;4.23;1.07;;;;;;;8.36;71.11;96605.69;5063019;28;20270;-83
2022/02/23 10:55:54;;;;;;;4.67;1.20;;;;;;;8.37;71.41;96608.16;5058777;28;20173;-82
2022/02/23 10:58:19;;;;;;;2.97;1.30;;;;;;;8.34;71.21;96600.59;5041219;28;20268;-82
2022/02/23 11:00:49;;;;;;;5.63;1.43;;;;;;;8.11;70.78;96591.03;5057500;28;20189;-82
2022/02/23 11:03:18;;;;;;;3.57;1.40;;;;;;;8.26;72.73;96589.13;5057241;28;20217;-82
2022/02/23 11:05:46;;;;;;;3.63;1.33;;;;;;;8.18;70.12;96600.84;5038885;28;20240;-82
2022/02/23 11:08:11;;;;;;;3.97;1.20;;;;;;;8.20;69.73;96591.19;5040640;28;20186;-82
2022/02/23 11:10:36;;;;;;;6.83;1.73;;;;;;;8.30;67.78;96586.19;5039830;28;20338;-82
2022/02/23 11:13:02;;;;;;;5.73;1.20;;;;;;;8.29;68.85;96586.31;5055523;28;20198;-82
2022/02/23 11:15:29;;;;;;;11.07;1.43;;;;;;;8.22;69.10;96583.34;5055950;28;20182;-82
2022/02/23 11:17:56;;;;;;;4.17;1.13;;;;;;;8.28;66.98;96580.31;5039096;28;20232;-82
2022/02/23 11:20:23;;;;;;;4.70;1.20;;;;;;;8.08;68.16;96586.06;5056770;28;20719;-82
2022/02/23 11:22:57;;;;;;;4.07;1.30;;;;;;;8.09;67.46;96578.19;5039026;28;20764;-82
2022/02/23 11:25:26;;;;;;;5.07;1.30;;;;;;;8.28;67.97;96567.38;5038696;28;20174;-81
2022/02/23 11:27:56;;;;;;;5.20;1.20;;;;;;;8.20;67.44;96575.69;5039231;28;20182;-82
2022/02/23 11:30:28;;;;;;;3.40;1.27;;;;;;;8.11;69.90;96576.31;5039707;28;20178;-82
2022/02/23 11:32:53;;;;;;;2.50;1.10;;;;;;;8.32;66.22;96578.34;5039704;28;20214;-82
2022/02/23 11:35:37;;;;;;;4.87;1.30;;;;;;;8.31;68.04;96574.13;5056922;28;20537;-82